Terminal Aerodrome Forecast
Issued by NWS

Home | Current Version | Previous Version | Text Only | Print | Product List | Glossary On
Versions: 1 2 3 4 5 6 7 8 9 10 11 12 13 14
000
FTUS46 KPDT 160500
TAFRDM
TAF
KRDM 160520Z 1606/1706 30006KT P6SM SCT120 BKN250
     FM160900 16006KT P6SM FEW250
     FM161200 16004KT P6SM BKN200
     FM161900 33010KT P6SM SCT250
     FM162200 28008G15KT P6SM FEW120 SCT250=

USA.gov is the U.S. government's official web portal to all federal, state and local government web resources and services.